^^
Grace C. Lehan Memorial Weather Station Historical Data
Daily Summary for May 12, 2022 Units:  Both    English   Metric
Daily Weekly Monthly Yearly
  High: Low: Average:
Temperature: 62.1 °F /  16.7 °C 35.7 °F /  2.1 °C 49.3 °F /  9.6 °C
Dew Point: 41.4 °F /  5.2 °C 25.4 °F /  -3.7 °C 34.8 °F /  1.6 °C
Humidity: 69% 41.2% 58%
Wind Speed: 7.5mph /  12.1km/h - 1.3mph /  2.1km/h
Wind Gust: 23mph /  37km/h - -
Wind- - WSW
Pressure: 30.11 in /  1019.5 hPa 29.80 in /  1009 hPa -
Precipitation: 0.00 in /  0 mm    
 
 
Tabular Data for May 12, 2022
Time Temperature Dew Point Pressure Wind Wind Speed Wind Gust Humidity Rainfall Rate (Hourly) solar
00:04 45.8 °F /  7.7 °C 36.3 °F /  2.4 °C 29.85in /  1010.7hPa South 0.4mph /  0.6km/h 6mph /  9.7km/h 69% 0.00in /  0mm 0 W/m2
00:09 46 °F /  7.8 °C 36.4 °F /  2.4 °C 29.84in /  1010.4hPa South 0.5mph /  0.8km/h 3mph /  4.8km/h 69% 0.00in /  0mm 0 W/m2
00:14 46 °F /  7.8 °C 36.5 °F /  2.5 °C 29.84in /  1010.4hPa South 0.2mph /  0.3km/h 3mph /  4.8km/h 69% 0.00in /  0mm 0 W/m2
00:19 46.1 °F /  7.8 °C 36.5 °F /  2.5 °C 29.84in /  1010.4hPa South 0.2mph /  0.3km/h 5mph /  8km/h 69% 0.00in /  0mm 0 W/m2
00:24 46.2 °F /  7.9 °C 36.6 °F /  2.6 °C 29.84in /  1010.4hPa South 0.4mph /  0.6km/h 5mph /  8km/h 68.9% 0.00in /  0mm 0 W/m2
00:29 46.3 °F /  7.9 °C 36.3 °F /  2.4 °C 29.84in /  1010.4hPa South 0.4mph /  0.6km/h 5mph /  8km/h 68% 0.00in /  0mm 0 W/m2
00:34 46.5 °F /  8.1 °C 36.5 °F /  2.5 °C 29.83in /  1010hPa South 0.5mph /  0.8km/h 5mph /  8km/h 68% 0.00in /  0mm 0 W/m2
00:39 46.6 °F /  8.1 °C 36.6 °F /  2.6 °C 29.83in /  1010hPa South 0.3mph /  0.5km/h 5mph /  8km/h 68% 0.00in /  0mm 0 W/m2
00:44 46.6 °F /  8.1 °C 36.6 °F /  2.6 °C 29.83in /  1010hPa South 0.1mph /  0.2km/h 5mph /  8km/h 68% 0.00in /  0mm 0 W/m2
00:49 46.7 °F /  8.2 °C 36.7 °F /  2.6 °C 29.83in /  1010hPa South 0.3mph /  0.5km/h 5mph /  8km/h 68% 0.00in /  0mm 0 W/m2
00:54 46.7 °F /  8.2 °C 36.7 °F /  2.6 °C 29.83in /  1010hPa South 0.4mph /  0.6km/h 5mph /  8km/h 68% 0.00in /  0mm 0 W/m2
00:59 46.8 °F /  8.2 °C 36.8 °F /  2.7 °C 29.83in /  1010hPa Calm   5mph /  8km/h 68% 0.00in /  0mm 0 W/m2
01:04 46.9 °F /  8.3 °C 36.9 °F /  2.7 °C 29.83in /  1010hPa South 0.4mph /  0.6km/h 5mph /  8km/h 68% 0.00in /  0mm 0 W/m2
01:09 47 °F /  8.3 °C 37 °F /  2.8 °C 29.82in /  1009.7hPa Calm   4mph /  6.4km/h 68% 0.00in /  0mm 0 W/m2
01:14 47 °F /  8.3 °C 37 °F /  2.8 °C 29.82in /  1009.7hPa South 0.3mph /  0.5km/h 4mph /  6.4km/h 68% 0.00in /  0mm 0 W/m2
01:19 47.1 °F /  8.4 °C 37.1 °F /  2.8 °C 29.82in /  1009.7hPa South 0.8mph /  1.3km/h 5mph /  8km/h 68% 0.00in /  0mm 0 W/m2
01:24 47.2 °F /  8.4 °C 37.2 °F /  2.9 °C 29.82in /  1009.7hPa South 0.4mph /  0.6km/h 5mph /  8km/h 68% 0.00in /  0mm 0 W/m2
01:29 47.4 °F /  8.6 °C 37.4 °F /  3 °C 29.82in /  1009.7hPa South 0.3mph /  0.5km/h 5mph /  8km/h 68% 0.00in /  0mm 0 W/m2
01:34 47.4 °F /  8.6 °C 37.2 °F /  2.9 °C 29.82in /  1009.7hPa South 0.1mph /  0.2km/h 5mph /  8km/h 67.6% 0.00in /  0mm 0 W/m2
01:39 47.5 °F /  8.6 °C 37.3 °F /  2.9 °C 29.82in /  1009.7hPa South 0.8mph /  1.3km/h 5mph /  8km/h 67.5% 0.00in /  0mm 0 W/m2
01:44 47.6 °F /  8.7 °C 37.2 °F /  2.9 °C 29.82in /  1009.7hPa South 0.1mph /  0.2km/h 5mph /  8km/h 67% 0.00in /  0mm 0 W/m2
01:49 47.7 °F /  8.7 °C 37.3 °F /  2.9 °C 29.82in /  1009.7hPa South 0.5mph /  0.8km/h 5mph /  8km/h 67% 0.00in /  0mm 0 W/m2
01:54 47.8 °F /  8.8 °C 37.4 °F /  3 °C 29.82in /  1009.7hPa South 0.4mph /  0.6km/h 5mph /  8km/h 67% 0.00in /  0mm 0 W/m2
01:59 47.8 °F /  8.8 °C 37.4 °F /  3 °C 29.81in /  1009.4hPa South 0.6mph /  1km/h 5mph /  8km/h 67% 0.00in /  0mm 0 W/m2
02:04 47.9 °F /  8.8 °C 37.2 °F /  2.9 °C 29.81in /  1009.4hPa South 1.7mph /  2.7km/h 10mph /  16.1km/h 66.3% 0.00in /  0mm 0 W/m2
02:09 48.1 °F /  8.9 °C 37.3 °F /  2.9 °C 29.81in /  1009.4hPa South 0.6mph /  1km/h 10mph /  16.1km/h 66% 0.00in /  0mm 0 W/m2
02:14 48.1 °F /  8.9 °C 37.3 °F /  2.9 °C 29.81in /  1009.4hPa South 0.5mph /  0.8km/h 10mph /  16.1km/h 66% 0.00in /  0mm 0 W/m2
02:19 48 °F /  8.9 °C 37.2 °F /  2.9 °C 29.81in /  1009.4hPa South 0.7mph /  1.1km/h 10mph /  16.1km/h 66% 0.00in /  0mm 0 W/m2
02:24 48 °F /  8.9 °C 37.2 °F /  2.9 °C 29.81in /  1009.4hPa South 0.5mph /  0.8km/h 10mph /  16.1km/h 66% 0.00in /  0mm 0 W/m2
02:29 48 °F /  8.9 °C 37.2 °F /  2.9 °C 29.81in /  1009.4hPa South 0.2mph /  0.3km/h 10mph /  16.1km/h 66% 0.00in /  0mm 0 W/m2
02:34 47.9 °F /  8.8 °C 37.1 °F /  2.8 °C 29.80in /  1009hPa South 0.7mph /  1.1km/h 10mph /  16.1km/h 66% 0.00in /  0mm 0 W/m2
02:39 48 °F /  8.9 °C 37.2 °F /  2.9 °C 29.80in /  1009hPa South 0.3mph /  0.5km/h 2mph /  3.2km/h 66% 0.00in /  0mm 0 W/m2
02:44 48.1 °F /  8.9 °C 37.3 °F /  2.9 °C 29.80in /  1009hPa Calm   2mph /  3.2km/h 66% 0.00in /  0mm 0 W/m2
02:49 48.1 °F /  8.9 °C 37.3 °F /  2.9 °C 29.80in /  1009hPa South 0.3mph /  0.5km/h 2mph /  3.2km/h 66% 0.00in /  0mm 0 W/m2
02:54 48.1 °F /  8.9 °C 37.3 °F /  2.9 °C 29.80in /  1009hPa South 0.5mph /  0.8km/h 2mph /  3.2km/h 66% 0.00in /  0mm 0 W/m2
02:59 48.2 °F /  9 °C 37.4 °F /  3 °C 29.80in /  1009hPa South 0.4mph /  0.6km/h 2mph /  3.2km/h 66% 0.00in /  0mm 0 W/m2
03:04 48.2 °F /  9 °C 37.3 °F /  2.9 °C 29.80in /  1009hPa South 0.2mph /  0.3km/h 2mph /  3.2km/h 65.8% 0.00in /  0mm 0 W/m2
03:09 48.2 °F /  9 °C 37 °F /  2.8 °C 29.80in /  1009hPa South 0.2mph /  0.3km/h 3mph /  4.8km/h 65% 0.00in /  0mm 0 W/m2
03:14 48.2 °F /  9 °C 37 °F /  2.8 °C 29.80in /  1009hPa South 0.1mph /  0.2km/h 3mph /  4.8km/h 65% 0.00in /  0mm 0 W/m2
03:19 48.2 °F /  9 °C 37 °F /  2.8 °C 29.80in /  1009hPa South 0.1mph /  0.2km/h 4mph /  6.4km/h 65% 0.00in /  0mm 0 W/m2
03:24 48.2 °F /  9 °C 37 °F /  2.8 °C 29.80in /  1009hPa Calm   4mph /  6.4km/h 65% 0.00in /  0mm 0 W/m2
03:29 48.1 °F /  8.9 °C 37 °F /  2.8 °C 29.80in /  1009hPa Calm   4mph /  6.4km/h 65.2% 0.00in /  0mm 0 W/m2
03:34 48.1 °F /  8.9 °C 37.3 °F /  2.9 °C 29.80in /  1009hPa Calm   4mph /  6.4km/h 66% 0.00in /  0mm 0 W/m2
03:39 48 °F /  8.9 °C 37.2 °F /  2.9 °C 29.80in /  1009hPa Calm     66% 0.00in /  0mm 0 W/m2
03:44 48 °F /  8.9 °C 37.2 °F /  2.9 °C 29.80in /  1009hPa Calm   2mph /  3.2km/h 66% 0.00in /  0mm 0 W/m2
03:49 47.9 °F /  8.8 °C 37.1 °F /  2.8 °C 29.80in /  1009hPa South 0.2mph /  0.3km/h 3mph /  4.8km/h 66% 0.00in /  0mm 0 W/m2
03:54 47.9 °F /  8.8 °C 37.1 °F /  2.8 °C 29.80in /  1009hPa Calm   3mph /  4.8km/h 66% 0.00in /  0mm 0 W/m2
03:59 48 °F /  8.9 °C 37.2 °F /  2.9 °C 29.80in /  1009hPa Calm   3mph /  4.8km/h 66% 0.00in /  0mm 0 W/m2
04:00 48 °F /  8.9 °C 37.2 °F /  2.9 °C 29.80in /  1009hPa Calm   3mph /  4.8km/h 66% 0.00in /  0mm 0 W/m2
04:09 48 °F /  8.9 °C 37.2 °F /  2.9 °C 29.81in /  1009.4hPa Calm     66% 0.00in /  0mm 0 W/m2
04:14 48 °F /  8.9 °C 37.2 °F /  2.9 °C 29.81in /  1009.4hPa Calm     66% 0.00in /  0mm 0 W/m2
04:19 47.9 °F /  8.8 °C 37.1 °F /  2.8 °C 29.81in /  1009.4hPa Calm     66% 0.00in /  0mm 0 W/m2
04:24 47.9 °F /  8.8 °C 37.1 °F /  2.8 °C 29.81in /  1009.4hPa Calm     66% 0.00in /  0mm 0 W/m2
04:29 47.8 °F /  8.8 °C 37 °F /  2.8 °C 29.81in /  1009.4hPa Calm   1mph /  1.6km/h 66% 0.00in /  0mm 0 W/m2
04:34 47.8 °F /  8.8 °C 37 °F /  2.8 °C 29.81in /  1009.4hPa Calm   1mph /  1.6km/h 66% 0.00in /  0mm 0 W/m2
04:39 47.7 °F /  8.7 °C 36.9 °F /  2.7 °C 29.81in /  1009.4hPa Calm     66% 0.00in /  0mm 0 W/m2
04:44 47.6 °F /  8.7 °C 36.9 °F /  2.7 °C 29.81in /  1009.4hPa Calm     66% 0.00in /  0mm 0 W/m2
04:49 47.6 °F /  8.7 °C 36.8 °F /  2.7 °C 29.81in /  1009.4hPa Calm     66% 0.00in /  0mm 0 W/m2
04:54 47.6 °F /  8.7 °C 36.8 °F /  2.7 °C 29.81in /  1009.4hPa Calm     66% 0.00in /  0mm 0 W/m2
04:59 47.6 °F /  8.7 °C 36.8 °F /  2.7 °C 29.82in /  1009.7hPa Calm     66% 0.00in /  0mm 0 W/m2
05:04 47.6 °F /  8.7 °C 36.8 °F /  2.7 °C 29.82in /  1009.7hPa Calm     66% 0.00in /  0mm 0 W/m2
05:09 47.6 °F /  8.7 °C 36.8 °F /  2.7 °C 29.81in /  1009.4hPa Calm     66% 0.00in /  0mm 0 W/m2
05:14 47.6 °F /  8.7 °C 36.8 °F /  2.7 °C 29.81in /  1009.4hPa Calm   1mph /  1.6km/h 66% 0.00in /  0mm 0 W/m2
05:19 47.5 °F /  8.6 °C 36.8 °F /  2.7 °C 29.81in /  1009.4hPa Calm   1mph /  1.6km/h 66% 0.00in /  0mm 0 W/m2
05:24 47.5 °F /  8.6 °C 36.7 °F /  2.6 °C 29.81in /  1009.4hPa Calm   1mph /  1.6km/h 66% 0.00in /  0mm 0 W/m2
05:29 47.4 °F /  8.6 °C 37 °F /  2.8 °C 29.81in /  1009.4hPa Calm   1mph /  1.6km/h 67% 0.00in /  0mm 0 W/m2
05:34 47.4 °F /  8.6 °C 37 °F /  2.8 °C 29.81in /  1009.4hPa Calm   1mph /  1.6km/h 67% 0.00in /  0mm 0 W/m2
05:39 47.4 °F /  8.6 °C 37 °F /  2.8 °C 29.81in /  1009.4hPa Calm     67% 0.00in /  0mm 0 W/m2
05:44 47.4 °F /  8.6 °C 37 °F /  2.8 °C 29.80in /  1009hPa Calm     67% 0.00in /  0mm 0 W/m2
05:49 47.4 °F /  8.6 °C 37 °F /  2.8 °C 29.80in /  1009hPa Calm     67% 0.00in /  0mm 0 W/m2
05:54 47.4 °F /  8.6 °C 37 °F /  2.8 °C 29.80in /  1009hPa Calm   1mph /  1.6km/h 67% 0.00in /  0mm 0 W/m2
05:59 47.4 °F /  8.6 °C 37 °F /  2.8 °C 29.80in /  1009hPa Calm   1mph /  1.6km/h 67% 0.00in /  0mm 0 W/m2
06:04 47.4 °F /  8.6 °C 37 °F /  2.8 °C 29.80in /  1009hPa Calm   1mph /  1.6km/h 67% 0.00in /  0mm 0 W/m2
06:09 47.4 °F /  8.6 °C 37 °F /  2.8 °C 29.80in /  1009hPa Calm     67% 0.00in /  0mm 0 W/m2
06:14 47.4 °F /  8.6 °C 37 °F /  2.8 °C 29.80in /  1009hPa Calm     67% 0.00in /  0mm 0 W/m2
06:19 47.4 °F /  8.6 °C 36.8 °F /  2.7 °C 29.80in /  1009hPa Calm   1mph /  1.6km/h 66.3% 0.00in /  0mm 0 W/m2
06:24 47.5 °F /  8.6 °C 36.7 °F /  2.6 °C 29.81in /  1009.4hPa Calm   1mph /  1.6km/h 66% 0.00in /  0mm 0 W/m2
06:29 47.6 °F /  8.7 °C 36.8 °F /  2.7 °C 29.81in /  1009.4hPa Calm   1mph /  1.6km/h 66% 0.00in /  0mm 0 W/m2
06:34 47.6 °F /  8.7 °C 36.8 °F /  2.7 °C 29.81in /  1009.4hPa Calm   1mph /  1.6km/h 66% 0.00in /  0mm 0 W/m2
06:39 47.6 °F /  8.7 °C 36.8 °F /  2.7 °C 29.81in /  1009.4hPa Calm     66% 0.00in /  0mm 0 W/m2
06:44 47.6 °F /  8.7 °C 36.8 °F /  2.7 °C 29.81in /  1009.4hPa Calm     66% 0.00in /  0mm 0 W/m2
06:49 47.6 °F /  8.7 °C 36.8 °F /  2.7 °C 29.81in /  1009.4hPa Calm     66% 0.00in /  0mm 0 W/m2
06:54 47.5 °F /  8.6 °C 36.7 °F /  2.6 °C 29.81in /  1009.4hPa Calm     66% 0.00in /  0mm 0 W/m2
06:59 47.5 °F /  8.6 °C 36.7 °F /  2.6 °C 29.81in /  1009.4hPa Calm     66% 0.00in /  0mm 7 W/m2
07:04 47.5 °F /  8.6 °C 36.7 °F /  2.6 °C 29.81in /  1009.4hPa Calm     66% 0.00in /  0mm 7 W/m2
07:09 47.5 °F /  8.6 °C 36.7 °F /  2.6 °C 29.81in /  1009.4hPa Calm     66% 0.00in /  0mm 11 W/m2
07:14 47.5 °F /  8.6 °C 36.7 °F /  2.6 °C 29.81in /  1009.4hPa Calm     66% 0.00in /  0mm 11 W/m2
07:19 47.5 °F /  8.6 °C 36.8 °F /  2.7 °C 29.81in /  1009.4hPa Calm   1mph /  1.6km/h 66.3% 0.00in /  0mm 14 W/m2
07:24 47.5 °F /  8.6 °C 37.1 °F /  2.8 °C 29.81in /  1009.4hPa Calm   1mph /  1.6km/h 67% 0.00in /  0mm 21 W/m2
07:29 47.5 °F /  8.6 °C 37.1 °F /  2.8 °C 29.81in /  1009.4hPa Calm   1mph /  1.6km/h 67% 0.00in /  0mm 23 W/m2
07:34 47.4 °F /  8.6 °C 37 °F /  2.8 °C 29.81in /  1009.4hPa Calm   1mph /  1.6km/h 67% 0.00in /  0mm 30 W/m2
07:39 47.4 °F /  8.6 °C 37 °F /  2.8 °C 29.81in /  1009.4hPa Calm   1mph /  1.6km/h 67% 0.00in /  0mm 39 W/m2
07:44 47.4 °F /  8.6 °C 37.1 °F /  2.8 °C 29.82in /  1009.7hPa Calm   1mph /  1.6km/h 67.2% 0.00in /  0mm 42 W/m2
07:49 47.2 °F /  8.4 °C 37.2 °F /  2.9 °C 29.82in /  1009.7hPa Calm   1mph /  1.6km/h 68% 0.00in /  0mm 47 W/m2
07:54 47 °F /  8.3 °C 37.2 °F /  2.9 °C 29.83in /  1010hPa Calm   1mph /  1.6km/h 68.3% 0.00in /  0mm 54 W/m2
07:59 47 °F /  8.3 °C 37.3 °F /  2.9 °C 29.83in /  1010hPa Calm   1mph /  1.6km/h 68.9% 0.00in /  0mm 65 W/m2
08:00 46.9 °F /  8.3 °C 37.3 °F /  2.9 °C 29.83in /  1010hPa Calm   1mph /  1.6km/h 69% 0.00in /  0mm 62 W/m2
08:09 46.8 °F /  8.2 °C 37.2 °F /  2.9 °C 29.83in /  1010hPa Calm     69% 0.00in /  0mm 83 W/m2
08:14 46.9 °F /  8.3 °C 37.3 °F /  2.9 °C 29.83in /  1010hPa Calm     69% 0.00in /  0mm 97 W/m2
08:19 47.1 °F /  8.4 °C 37.5 °F /  3.1 °C 29.83in /  1010hPa Calm   1mph /  1.6km/h 69% 0.00in /  0mm 146 W/m2
08:24 47.4 °F /  8.6 °C 37.8 °F /  3.2 °C 29.83in /  1010hPa Calm   1mph /  1.6km/h 68.9% 0.00in /  0mm 113 W/m2
08:29 47.7 °F /  8.7 °C 37.7 °F /  3.2 °C 29.84in /  1010.4hPa Calm   1mph /  1.6km/h 68% 0.00in /  0mm 128 W/m2
08:34 48 °F /  8.9 °C 37.9 °F /  3.3 °C 29.84in /  1010.4hPa South 0.1mph /  0.2km/h 2mph /  3.2km/h 68% 0.00in /  0mm 149 W/m2
08:39 48.2 °F /  9 °C 37.9 °F /  3.3 °C 29.84in /  1010.4hPa South 0.1mph /  0.2km/h 2mph /  3.2km/h 67.1% 0.00in /  0mm 130 W/m2
08:44 48.4 °F /  9.1 °C 38 °F /  3.3 °C 29.84in /  1010.4hPa Calm   2mph /  3.2km/h 67% 0.00in /  0mm 172 W/m2
08:49 48.6 °F /  9.2 °C 38.2 °F /  3.4 °C 29.84in /  1010.4hPa Calm   2mph /  3.2km/h 67% 0.00in /  0mm 348 W/m2
08:54 49 °F /  9.4 °C 38.3 °F /  3.5 °C 29.84in /  1010.4hPa Calm   2mph /  3.2km/h 66.4% 0.00in /  0mm 221 W/m2
08:59 49.5 °F /  9.7 °C 38.8 °F /  3.8 °C 29.84in /  1010.4hPa Calm   2mph /  3.2km/h 66.4% 0.00in /  0mm 281 W/m2
09:04 50.1 °F /  10.1 °C 38.9 °F /  3.8 °C 29.84in /  1010.4hPa Calm   2mph /  3.2km/h 65.1% 0.00in /  0mm 322 W/m2
09:09 50.8 °F /  10.4 °C 39.1 °F /  3.9 °C 29.84in /  1010.4hPa Calm     64.1% 0.00in /  0mm 376 W/m2
09:14 51.7 °F /  10.9 °C 39.7 °F /  4.3 °C 29.84in /  1010.4hPa Calm     63.4% 0.00in /  0mm 388 W/m2
09:19 52.9 °F /  11.6 °C 39.9 °F /  4.4 °C 29.84in /  1010.4hPa Calm     61.2% 0.00in /  0mm 399 W/m2
09:24 53.8 °F /  12.1 °C 40 °F /  4.4 °C 29.84in /  1010.4hPa Calm     59.5% 0.00in /  0mm 410 W/m2
09:29 54.6 °F /  12.6 °C 40.2 °F /  4.6 °C 29.84in /  1010.4hPa South 1mph /  1.6km/h 3mph /  4.8km/h 58.1% 0.00in /  0mm 415 W/m2
09:34 55.1 °F /  12.8 °C 40.1 °F /  4.5 °C 29.84in /  1010.4hPa South 0.1mph /  0.2km/h 3mph /  4.8km/h 56.9% 0.00in /  0mm 425 W/m2
09:39 55.6 °F /  13.1 °C 40.4 °F /  4.7 °C 29.84in /  1010.4hPa South 0.1mph /  0.2km/h 1mph /  1.6km/h 56.6% 0.00in /  0mm 438 W/m2
09:44 56.2 °F /  13.4 °C 40.8 °F /  4.9 °C 29.84in /  1010.4hPa South 0.4mph /  0.6km/h 2mph /  3.2km/h 56.2% 0.00in /  0mm 448 W/m2
09:49 57 °F /  13.9 °C 40.3 °F /  4.6 °C 29.84in /  1010.4hPa SW 0.9mph /  1.4km/h 10mph /  16.1km/h 53.6% 0.00in /  0mm 455 W/m2
09:54 57.9 °F /  14.4 °C 39.8 °F /  4.3 °C 29.84in /  1010.4hPa SW 1.7mph /  2.7km/h 10mph /  16.1km/h 50.9% 0.00in /  0mm 457 W/m2
09:59 58.4 °F /  14.7 °C 39.8 °F /  4.3 °C 29.84in /  1010.4hPa WSW 1.5mph /  2.4km/h 10mph /  16.1km/h 49.7% 0.00in /  0mm 492 W/m2
10:04 58.9 °F /  14.9 °C 40.1 °F /  4.5 °C 29.84in /  1010.4hPa SW 0.8mph /  1.3km/h 10mph /  16.1km/h 49.4% 0.00in /  0mm 519 W/m2
10:09 59.6 °F /  15.3 °C 40.5 °F /  4.7 °C 29.84in /  1010.4hPa SW 1mph /  1.6km/h 10mph /  16.1km/h 49% 0.00in /  0mm 547 W/m2
10:14 60.3 °F /  15.7 °C 41.1 °F /  5.1 °C 29.84in /  1010.4hPa SW 1.4mph /  2.3km/h 10mph /  16.1km/h 49.1% 0.00in /  0mm 610 W/m2
10:19 60.8 °F /  16 °C 40.8 °F /  4.9 °C 29.84in /  1010.4hPa WSW 1.8mph /  2.9km/h 11mph /  17.7km/h 47.6% 0.00in /  0mm 670 W/m2
10:24 61.2 °F /  16.2 °C 41 °F /  5 °C 29.84in /  1010.4hPa West 7.4mph /  11.9km/h 23mph /  37km/h 47.4% 0.00in /  0mm 671 W/m2
10:29 61.3 °F /  16.3 °C 40.9 °F /  4.9 °C 29.84in /  1010.4hPa WSW 4.4mph /  7.1km/h 23mph /  37km/h 47% 0.00in /  0mm 629 W/m2
10:34 61.3 °F /  16.3 °C 40.7 °F /  4.8 °C 29.84in /  1010.4hPa WSW 3.7mph /  6km/h 23mph /  37km/h 46.6% 0.00in /  0mm 689 W/m2
10:39 61.3 °F /  16.3 °C 41.3 °F /  5.2 °C 29.84in /  1010.4hPa WSW 2.3mph /  3.7km/h 16mph /  25.7km/h 47.9% 0.00in /  0mm 617 W/m2
10:44 61.2 °F /  16.2 °C 41.3 °F /  5.2 °C 29.84in /  1010.4hPa WSW 2mph /  3.2km/h 16mph /  25.7km/h 47.8% 0.00in /  0mm 707 W/m2
10:49 61.1 °F /  16.2 °C 40.7 °F /  4.8 °C 29.84in /  1010.4hPa WSW 3.2mph /  5.1km/h 16mph /  25.7km/h 46.8% 0.00in /  0mm 728 W/m2
10:54 61.1 °F /  16.2 °C 41 °F /  5 °C 29.84in /  1010.4hPa WSW 2.9mph /  4.7km/h 16mph /  25.7km/h 47.4% 0.00in /  0mm 666 W/m2
10:59 61.3 °F /  16.3 °C 40.7 °F /  4.8 °C 29.84in /  1010.4hPa WSW 1.6mph /  2.6km/h 16mph /  25.7km/h 46.6% 0.00in /  0mm 705 W/m2
11:04 61.5 °F /  16.4 °C 41.4 °F /  5.2 °C 29.85in /  1010.7hPa SW 2mph /  3.2km/h 16mph /  25.7km/h 47.6% 0.00in /  0mm 722 W/m2
11:09 61.7 °F /  16.5 °C 41.4 °F /  5.2 °C 29.84in /  1010.4hPa WSW 0.3mph /  0.5km/h 7mph /  11.3km/h 47.2% 0.00in /  0mm 596 W/m2
11:14 62 °F /  16.7 °C 41.1 °F /  5.1 °C 29.85in /  1010.7hPa WSW 2.1mph /  3.4km/h 8mph /  12.9km/h 46.2% 0.00in /  0mm 582 W/m2
11:19 62.1 °F /  16.7 °C 40.8 °F /  4.9 °C 29.84in /  1010.4hPa WSW 2.6mph /  4.2km/h 13mph /  20.9km/h 45.5% 0.00in /  0mm 446 W/m2
11:24 61.8 °F /  16.6 °C 40.5 °F /  4.7 °C 29.84in /  1010.4hPa WSW 3.3mph /  5.3km/h 15mph /  24.1km/h 45.4% 0.00in /  0mm 318 W/m2
11:29 61.4 °F /  16.3 °C 40.4 °F /  4.7 °C 29.84in /  1010.4hPa WSW 2.4mph /  3.9km/h 15mph /  24.1km/h 46% 0.00in /  0mm 301 W/m2
11:34 61.1 °F /  16.2 °C 40.8 °F /  4.9 °C 29.84in /  1010.4hPa West 2.5mph /  4km/h 15mph /  24.1km/h 47% 0.00in /  0mm 338 W/m2
11:39 60.9 °F /  16.1 °C 40.1 °F /  4.5 °C 29.84in /  1010.4hPa WSW 3.1mph /  5km/h 13mph /  20.9km/h 46.2% 0.00in /  0mm 418 W/m2
11:44 60.9 °F /  16.1 °C 40.8 °F /  4.9 °C 29.84in /  1010.4hPa SW 2.7mph /  4.3km/h 17mph /  27.4km/h 47.5% 0.00in /  0mm 408 W/m2
11:49 60.8 °F /  16 °C 40.6 °F /  4.8 °C 29.84in /  1010.4hPa WSW 3.2mph /  5.1km/h 17mph /  27.4km/h 47.3% 0.00in /  0mm 306 W/m2
11:54 60.5 °F /  15.8 °C 40 °F /  4.4 °C 29.84in /  1010.4hPa SW 5mph /  8km/h 17mph /  27.4km/h 46.7% 0.00in /  0mm 248 W/m2
11:59 60 °F /  15.6 °C 39.6 °F /  4.2 °C 29.84in /  1010.4hPa WSW 7.4mph /  11.9km/h 18mph /  29km/h 46.6% 0.00in /  0mm 213 W/m2
12:00 59.8 °F /  15.4 °C 39.6 °F /  4.2 °C 29.84in /  1010.4hPa WNW 7mph /  11.3km/h 18mph /  29km/h 47% 0.00in /  0mm 207 W/m2
12:09 58.8 °F /  14.9 °C 39.2 °F /  4 °C 29.84in /  1010.4hPa WSW 4.3mph /  6.9km/h 17mph /  27.4km/h 48.1% 0.00in /  0mm 272 W/m2
12:14 58.4 °F /  14.7 °C 39 °F /  3.9 °C 29.84in /  1010.4hPa WSW 4.4mph /  7.1km/h 18mph /  29km/h 48.5% 0.00in /  0mm 262 W/m2
12:19 58 °F /  14.4 °C 39.1 °F /  3.9 °C 29.84in /  1010.4hPa SW 3.1mph /  5km/h 18mph /  29km/h 49.3% 0.00in /  0mm 267 W/m2
12:24 57.7 °F /  14.3 °C 38.8 °F /  3.8 °C 29.83in /  1010hPa WSW 4.2mph /  6.8km/h 18mph /  29km/h 49.1% 0.00in /  0mm 271 W/m2
12:29 57.5 °F /  14.2 °C 38.6 °F /  3.7 °C 29.83in /  1010hPa WSW 4.6mph /  7.4km/h 22mph /  35.4km/h 49.2% 0.00in /  0mm 327 W/m2
12:34 57.3 °F /  14.1 °C 38.6 °F /  3.7 °C 29.84in /  1010.4hPa WSW 2.5mph /  4km/h 22mph /  35.4km/h 49.5% 0.00in /  0mm 327 W/m2
12:39 57.3 °F /  14.1 °C 38.7 °F /  3.7 °C 29.84in /  1010.4hPa WSW 4.8mph /  7.7km/h 16mph /  25.7km/h 49.9% 0.00in /  0mm 287 W/m2
12:44 57.1 °F /  13.9 °C 38.2 °F /  3.4 °C 29.84in /  1010.4hPa WSW 2mph /  3.2km/h 16mph /  25.7km/h 49.2% 0.00in /  0mm 287 W/m2
12:49 57.1 °F /  13.9 °C 38.9 °F /  3.8 °C 29.84in /  1010.4hPa WSW 1.1mph /  1.8km/h 16mph /  25.7km/h 50.4% 0.00in /  0mm 248 W/m2
12:54 57.3 °F /  14.1 °C 38.5 °F /  3.6 °C 29.85in /  1010.7hPa WSW 2.6mph /  4.2km/h 16mph /  25.7km/h 49.4% 0.00in /  0mm 255 W/m2
12:59 57.2 °F /  14 °C 37.8 °F /  3.2 °C 29.84in /  1010.4hPa West 3.3mph /  5.3km/h 16mph /  25.7km/h 48.1% 0.00in /  0mm 301 W/m2
13:04 57.1 °F /  13.9 °C 36.9 °F /  2.7 °C 29.84in /  1010.4hPa WNW 2.5mph /  4km/h 16mph /  25.7km/h 46.6% 0.00in /  0mm 229 W/m2
13:09 57.1 °F /  13.9 °C 36.5 °F /  2.5 °C 29.84in /  1010.4hPa West 2.1mph /  3.4km/h 13mph /  20.9km/h 46% 0.00in /  0mm 241 W/m2
13:14 57.1 °F /  13.9 °C 36.2 °F /  2.3 °C 29.84in /  1010.4hPa WSW 4.6mph /  7.4km/h 16mph /  25.7km/h 45.5% 0.00in /  0mm 229 W/m2
13:19 56.8 °F /  13.8 °C 36 °F /  2.2 °C 29.84in /  1010.4hPa WSW 4.8mph /  7.7km/h 18mph /  29km/h 45.6% 0.00in /  0mm 209 W/m2
13:24 56.4 °F /  13.6 °C 36.4 °F /  2.4 °C 29.85in /  1010.7hPa WSW 3.1mph /  5km/h 18mph /  29km/h 46.8% 0.00in /  0mm 178 W/m2
13:29 56.1 °F /  13.4 °C 35.8 °F /  2.1 °C 29.85in /  1010.7hPa WSW 2.6mph /  4.2km/h 18mph /  29km/h 46.4% 0.00in /  0mm 255 W/m2
13:34 56 °F /  13.3 °C 35.8 °F /  2.1 °C 29.85in /  1010.7hPa WSW 2.4mph /  3.9km/h 18mph /  29km/h 46.5% 0.00in /  0mm 202 W/m2
13:39 56 °F /  13.3 °C 35.7 °F /  2.1 °C 29.85in /  1010.7hPa SW 2.2mph /  3.5km/h 12mph /  19.3km/h 46.3% 0.00in /  0mm 241 W/m2
13:44 56 °F /  13.3 °C 36.2 °F /  2.3 °C 29.85in /  1010.7hPa WSW 1.8mph /  2.9km/h 12mph /  19.3km/h 47.2% 0.00in /  0mm 381 W/m2
13:49 56.2 °F /  13.4 °C 36.1 °F /  2.3 °C 29.85in /  1010.7hPa SW 2.9mph /  4.7km/h 12mph /  19.3km/h 46.7% 0.00in /  0mm 315 W/m2
13:54 56.2 °F /  13.4 °C 36.2 °F /  2.3 °C 29.85in /  1010.7hPa SW 0.9mph /  1.4km/h 12mph /  19.3km/h 46.7% 0.00in /  0mm 264 W/m2
13:59 56.5 °F /  13.6 °C 36.1 °F /  2.3 °C 29.85in /  1010.7hPa SW 1.5mph /  2.4km/h 12mph /  19.3km/h 46.3% 0.00in /  0mm 264 W/m2
14:04 56.7 °F /  13.7 °C 35.9 °F /  2.2 °C 29.85in /  1010.7hPa WSW 4.4mph /  7.1km/h 19mph /  30.6km/h 45.5% 0.00in /  0mm 323 W/m2
14:09 57.1 °F /  13.9 °C 35.4 °F /  1.9 °C 29.85in /  1010.7hPa West 4.3mph /  6.9km/h 23mph /  37km/h 44% 0.00in /  0mm 262 W/m2
14:14 57.3 °F /  14.1 °C 35.5 °F /  1.9 °C 29.85in /  1010.7hPa West 2.8mph /  4.5km/h 23mph /  37km/h 44% 0.00in /  0mm 223 W/m2
14:19 57.1 °F /  13.9 °C 35.1 °F /  1.7 °C 29.85in /  1010.7hPa SW 3.5mph /  5.6km/h 23mph /  37km/h 43.5% 0.00in /  0mm 243 W/m2
14:24 56.9 °F /  13.8 °C 35.2 °F /  1.8 °C 29.86in /  1011.1hPa WSW 2.9mph /  4.7km/h 23mph /  37km/h 44% 0.00in /  0mm 169 W/m2
14:29 56.6 °F /  13.7 °C 34.8 °F /  1.6 °C 29.86in /  1011.1hPa WSW 2.2mph /  3.5km/h 23mph /  37km/h 43.8% 0.00in /  0mm 195 W/m2
14:34 56.4 °F /  13.6 °C 35.1 °F /  1.7 °C 29.86in /  1011.1hPa WSW 1.2mph /  1.9km/h 23mph /  37km/h 44.6% 0.00in /  0mm 195 W/m2
14:39 56.4 °F /  13.6 °C 35.1 °F /  1.7 °C 29.86in /  1011.1hPa SW 1.5mph /  2.4km/h 10mph /  16.1km/h 44.6% 0.00in /  0mm 176 W/m2
14:44 56.3 °F /  13.5 °C 35.2 °F /  1.8 °C 29.86in /  1011.1hPa SW 0.4mph /  0.6km/h 10mph /  16.1km/h 44.9% 0.00in /  0mm 190 W/m2
14:49 56.3 °F /  13.5 °C 35.3 °F /  1.8 °C 29.86in /  1011.1hPa West 0.7mph /  1.1km/h 10mph /  16.1km/h 45.1% 0.00in /  0mm 178 W/m2
14:54 56.4 °F /  13.6 °C 35 °F /  1.7 °C 29.87in /  1011.4hPa WNW 0.3mph /  0.5km/h 10mph /  16.1km/h 44.5% 0.00in /  0mm 181 W/m2
14:59 56.4 °F /  13.6 °C 35 °F /  1.7 °C 29.87in /  1011.4hPa WNW 1.7mph /  2.7km/h 12mph /  19.3km/h 44.5% 0.00in /  0mm 169 W/m2
15:04 56.4 °F /  13.6 °C 34.2 °F /  1.2 °C 29.87in /  1011.4hPa WNW 4.9mph /  7.9km/h 14mph /  22.5km/h 43.1% 0.00in /  0mm 160 W/m2
15:09 56.1 °F /  13.4 °C 33.5 °F /  0.8 °C 29.87in /  1011.4hPa WNW 5.7mph /  9.2km/h 17mph /  27.4km/h 42.2% 0.00in /  0mm 134 W/m2
15:14 55.8 °F /  13.2 °C 32.9 °F /  0.5 °C 29.88in /  1011.7hPa WNW 4.8mph /  7.7km/h 19mph /  30.6km/h 41.6% 0.00in /  0mm 130 W/m2
15:19 55.6 °F /  13.1 °C 32.7 °F /  0.4 °C 29.88in /  1011.7hPa West 3.3mph /  5.3km/h 19mph /  30.6km/h 41.7% 0.00in /  0mm 128 W/m2
15:24 55.4 °F /  13 °C 32.3 °F /  0.2 °C 29.88in /  1011.7hPa WNW 4.9mph /  7.9km/h 19mph /  30.6km/h 41.2% 0.00in /  0mm 127 W/m2
15:29 55.2 °F /  12.9 °C 32.7 °F /  0.4 °C 29.88in /  1011.7hPa WNW 6.7mph /  10.8km/h 19mph /  30.6km/h 42.3% 0.00in /  0mm 125 W/m2
15:34 54.9 °F /  12.7 °C 32.9 °F /  0.5 °C 29.88in /  1011.7hPa WNW 7.5mph /  12.1km/h 19mph /  30.6km/h 43% 0.00in /  0mm 113 W/m2
15:39 54.8 °F /  12.7 °C 32.6 °F /  0.3 °C 29.89in /  1012.1hPa WNW 4.2mph /  6.8km/h 17mph /  27.4km/h 42.8% 0.00in /  0mm 86 W/m2
15:44 54.7 °F /  12.6 °C 32.3 °F /  0.2 °C 29.88in /  1011.7hPa WNW 4.3mph /  6.9km/h 17mph /  27.4km/h 42.4% 0.00in /  0mm 84 W/m2
15:49 54.6 °F /  12.6 °C 32 °F /  0 °C 29.89in /  1012.1hPa WNW 3.3mph /  5.3km/h 17mph /  27.4km/h 42.1% 0.00in /  0mm 60 W/m2
15:54 54.4 °F /  12.4 °C 32.2 °F /  0.1 °C 29.89in /  1012.1hPa WNW 4.7mph /  7.6km/h 17mph /  27.4km/h 42.7% 0.00in /  0mm 83 W/m2
15:59 54.3 °F /  12.4 °C 32.2 °F /  0.1 °C 29.89in /  1012.1hPa WNW 4mph /  6.4km/h 18mph /  29km/h 42.8% 0.00in /  0mm 72 W/m2
16:00 54.3 °F /  12.4 °C 31.7 °F /  -0.2 °C 29.89in /  1012.1hPa WNW 2mph /  3.2km/h 18mph /  29km/h 42% 0.00in /  0mm 51 W/m2
16:09 54.2 °F /  12.3 °C 31.7 °F /  -0.2 °C 29.90in /  1012.4hPa West 2.7mph /  4.3km/h 11mph /  17.7km/h 42.2% 0.00in /  0mm 47 W/m2
16:14 54.1 °F /  12.3 °C 31.9 °F /  -0.1 °C 29.91in /  1012.8hPa West 1mph /  1.6km/h 11mph /  17.7km/h 42.6% 0.00in /  0mm 30 W/m2
16:19 54.1 °F /  12.3 °C 32.2 °F /  0.1 °C 29.91in /  1012.8hPa West 0.2mph /  0.3km/h 11mph /  17.7km/h 43.2% 0.00in /  0mm 30 W/m2
16:24 53.9 °F /  12.2 °C 32.2 °F /  0.1 °C 29.91in /  1012.8hPa WSW 2.5mph /  4km/h 12mph /  19.3km/h 43.5% 0.00in /  0mm 30 W/m2
16:29 53.6 °F /  12 °C 31.9 °F /  -0.1 °C 29.90in /  1012.4hPa WNW 2.4mph /  3.9km/h 14mph /  22.5km/h 43.4% 0.00in /  0mm 25 W/m2
16:34 53.4 °F /  11.9 °C 31.7 °F /  -0.2 °C 29.90in /  1012.4hPa WNW 3.2mph /  5.1km/h 14mph /  22.5km/h 43.5% 0.00in /  0mm 19 W/m2
16:39 53 °F /  11.7 °C 31.8 °F /  -0.1 °C 29.90in /  1012.4hPa West 2.6mph /  4.2km/h 14mph /  22.5km/h 44.2% 0.00in /  0mm 19 W/m2
16:44 52.7 °F /  11.5 °C 31.8 °F /  -0.1 °C 29.91in /  1012.8hPa West 2.2mph /  3.5km/h 14mph /  22.5km/h 44.6% 0.00in /  0mm 18 W/m2
16:49 52.4 °F /  11.3 °C 31.8 °F /  -0.1 °C 29.91in /  1012.8hPa West 2mph /  3.2km/h 14mph /  22.5km/h 45.3% 0.00in /  0mm 16 W/m2
16:54 52 °F /  11.1 °C 31.9 °F /  -0.1 °C 29.92in /  1013.1hPa West 1.2mph /  1.9km/h 14mph /  22.5km/h 46% 0.00in /  0mm 16 W/m2
16:59 51.8 °F /  11 °C 32 °F /  0 °C 29.92in /  1013.1hPa West 0.3mph /  0.5km/h 14mph /  22.5km/h 46.6% 0.00in /  0mm 16 W/m2
17:04 51.5 °F /  10.8 °C 32 °F /  0 °C 29.92in /  1013.1hPa West 0.2mph /  0.3km/h 14mph /  22.5km/h 47% 0.00in /  0mm 12 W/m2
17:09 51.3 °F /  10.7 °C 31.7 °F /  -0.2 °C 29.92in /  1013.1hPa West 0.9mph /  1.4km/h 13mph /  20.9km/h 47% 0.00in /  0mm 11 W/m2
17:14 51 °F /  10.6 °C 31.7 °F /  -0.2 °C 29.93in /  1013.4hPa WNW 1.8mph /  2.9km/h 13mph /  20.9km/h 47.3% 0.00in /  0mm 7 W/m2
17:19 50.9 °F /  10.5 °C 31.9 °F /  -0.1 °C 29.93in /  1013.4hPa Calm   13mph /  20.9km/h 48% 0.00in /  0mm 0 W/m2
17:24 50.7 °F /  10.4 °C 31.7 °F /  -0.2 °C 29.93in /  1013.4hPa WNW 0.1mph /  0.2km/h 13mph /  20.9km/h 48% 0.00in /  0mm 0 W/m2
17:29 50.5 °F /  10.3 °C 32 °F /  0 °C 29.94in /  1013.8hPa WNW 0.2mph /  0.3km/h 13mph /  20.9km/h 48.9% 0.00in /  0mm 0 W/m2
17:34 50.3 °F /  10.2 °C 31.9 °F /  -0.1 °C 29.94in /  1013.8hPa West 0.1mph /  0.2km/h 13mph /  20.9km/h 49% 0.00in /  0mm 0 W/m2
17:39 50 °F /  10 °C 32.1 °F /  0.1 °C 29.95in /  1014.1hPa West 0.2mph /  0.3km/h 3mph /  4.8km/h 49.9% 0.00in /  0mm 0 W/m2
17:44 49.8 °F /  9.9 °C 32 °F /  0 °C 29.95in /  1014.1hPa West 0.3mph /  0.5km/h 3mph /  4.8km/h 50% 0.00in /  0mm 0 W/m2
17:49 49.7 °F /  9.8 °C 31.8 °F /  -0.1 °C 29.96in /  1014.4hPa WNW 1.2mph /  1.9km/h 11mph /  17.7km/h 50% 0.00in /  0mm 0 W/m2
17:54 49.5 °F /  9.7 °C 31.7 °F /  -0.2 °C 29.96in /  1014.4hPa NW 4.9mph /  7.9km/h 13mph /  20.9km/h 50.2% 0.00in /  0mm 0 W/m2
17:59 49.3 °F /  9.6 °C 31.6 °F /  -0.2 °C 29.97in /  1014.8hPa WNW 3.8mph /  6.1km/h 13mph /  20.9km/h 50.3% 0.00in /  0mm 0 W/m2
18:04 48.9 °F /  9.4 °C 31.7 °F /  -0.2 °C 29.97in /  1014.8hPa NW 2.8mph /  4.5km/h 13mph /  20.9km/h 51.3% 0.00in /  0mm 0 W/m2
18:09 48.5 °F /  9.2 °C 31.9 °F /  -0.1 °C 29.98in /  1015.1hPa NW 2.1mph /  3.4km/h 11mph /  17.7km/h 52.4% 0.00in /  0mm 0 W/m2
18:14 48 °F /  8.9 °C 31.8 °F /  -0.1 °C 29.98in /  1015.1hPa WNW 3.7mph /  6km/h 14mph /  22.5km/h 53.3% 0.00in /  0mm 0 W/m2
18:19 47.5 °F /  8.6 °C 31.9 °F /  -0.1 °C 29.98in /  1015.1hPa NW 5mph /  8km/h 15mph /  24.1km/h 54.5% 0.00in /  0mm 0 W/m2
18:24 47.1 °F /  8.4 °C 31.9 °F /  -0.1 °C 29.98in /  1015.1hPa NW 4.1mph /  6.6km/h 15mph /  24.1km/h 55.3% 0.00in /  0mm 0 W/m2
18:29 46.7 °F /  8.2 °C 31.9 °F /  -0.1 °C 29.99in /  1015.5hPa WNW 2.2mph /  3.5km/h 15mph /  24.1km/h 56% 0.00in /  0mm 0 W/m2
18:34 46.4 °F /  8 °C 31.7 °F /  -0.2 °C 29.99in /  1015.5hPa NW 1.4mph /  2.3km/h 15mph /  24.1km/h 56.2% 0.00in /  0mm 0 W/m2
18:39 46.2 °F /  7.9 °C 31.8 °F /  -0.1 °C 29.99in /  1015.5hPa WNW 2.4mph /  3.9km/h 10mph /  16.1km/h 57% 0.00in /  0mm 0 W/m2
18:44 46 °F /  7.8 °C 31.7 °F /  -0.2 °C 29.98in /  1015.1hPa WNW 1mph /  1.6km/h 10mph /  16.1km/h 57% 0.00in /  0mm 0 W/m2
18:49 45.9 °F /  7.7 °C 31.7 °F /  -0.2 °C 29.99in /  1015.5hPa WNW 1.1mph /  1.8km/h 10mph /  16.1km/h 57.5% 0.00in /  0mm 0 W/m2
18:54 45.7 °F /  7.6 °C 31.7 °F /  -0.2 °C 29.99in /  1015.5hPa WNW 1.9mph /  3.1km/h 10mph /  16.1km/h 58% 0.00in /  0mm 0 W/m2
18:59 45.5 °F /  7.5 °C 31.6 °F /  -0.2 °C 29.99in /  1015.5hPa NW 0.6mph /  1km/h 10mph /  16.1km/h 58% 0.00in /  0mm 0 W/m2
19:04 45.3 °F /  7.4 °C 31.4 °F /  -0.3 °C 29.99in /  1015.5hPa WNW 0.2mph /  0.3km/h 10mph /  16.1km/h 58% 0.00in /  0mm 0 W/m2
19:09 45.2 °F /  7.3 °C 31.3 °F /  -0.4 °C 30.00in /  1015.8hPa WNW 0.5mph /  0.8km/h 6mph /  9.7km/h 58% 0.00in /  0mm 0 W/m2
19:14 45.1 °F /  7.3 °C 31.4 °F /  -0.3 °C 30.00in /  1015.8hPa WNW 0.4mph /  0.6km/h 6mph /  9.7km/h 58.6% 0.00in /  0mm 0 W/m2
19:19 44.9 °F /  7.2 °C 31.5 °F /  -0.3 °C 30.00in /  1015.8hPa WNW 0.1mph /  0.2km/h 6mph /  9.7km/h 59% 0.00in /  0mm 0 W/m2
19:24 44.7 °F /  7.1 °C 31.3 °F /  -0.4 °C 30.00in /  1015.8hPa WNW 0.1mph /  0.2km/h 6mph /  9.7km/h 59% 0.00in /  0mm 0 W/m2
19:29 44.6 °F /  7 °C 31.3 °F /  -0.4 °C 30.01in /  1016.1hPa Calm   6mph /  9.7km/h 59.3% 0.00in /  0mm 0 W/m2
19:34 44.4 °F /  6.9 °C 31.2 °F /  -0.4 °C 30.01in /  1016.1hPa WNW 0.9mph /  1.4km/h 7mph /  11.3km/h 59.3% 0.00in /  0mm 0 W/m2
19:39 44.3 °F /  6.8 °C 30.9 °F /  -0.6 °C 30.02in /  1016.5hPa WNW 2.4mph /  3.9km/h 10mph /  16.1km/h 59% 0.00in /  0mm 0 W/m2
19:44 44.2 °F /  6.8 °C 30.8 °F /  -0.7 °C 30.02in /  1016.5hPa WNW 2mph /  3.2km/h 10mph /  16.1km/h 59% 0.00in /  0mm 0 W/m2
19:49 44.2 °F /  6.8 °C 30.8 °F /  -0.7 °C 30.03in /  1016.8hPa WNW 1.9mph /  3.1km/h 10mph /  16.1km/h 59% 0.00in /  0mm 0 W/m2
19:54 44.1 °F /  6.7 °C 30.7 °F /  -0.7 °C 30.04in /  1017.2hPa WNW 2.2mph /  3.5km/h 11mph /  17.7km/h 59% 0.00in /  0mm 0 W/m2
19:59 44 °F /  6.7 °C 30.6 °F /  -0.8 °C 30.04in /  1017.2hPa WNW 4.4mph /  7.1km/h 11mph /  17.7km/h 59% 0.00in /  0mm 0 W/m2
20:00 44 °F /  6.7 °C 30.6 °F /  -0.8 °C 30.04in /  1017.2hPa WNW 4mph /  6.4km/h 11mph /  17.7km/h 59% 0.00in /  0mm 0 W/m2
20:09 43.9 °F /  6.6 °C 30.3 °F /  -0.9 °C 30.04in /  1017.2hPa NW 2.8mph /  4.5km/h 14mph /  22.5km/h 58.3% 0.00in /  0mm 0 W/m2
20:14 43.8 °F /  6.6 °C 30.3 °F /  -0.9 °C 30.05in /  1017.5hPa NW 2.5mph /  4km/h 14mph /  22.5km/h 58.6% 0.00in /  0mm 0 W/m2
20:19 43.7 °F /  6.5 °C 30.3 °F /  -0.9 °C 30.05in /  1017.5hPa NW 3mph /  4.8km/h 14mph /  22.5km/h 59% 0.00in /  0mm 0 W/m2
20:24 43.5 °F /  6.4 °C 30.1 °F /  -1.1 °C 30.05in /  1017.5hPa NW 3.1mph /  5km/h 14mph /  22.5km/h 59% 0.00in /  0mm 0 W/m2
20:29 43.2 °F /  6.2 °C 30.1 °F /  -1.1 °C 30.05in /  1017.5hPa NW 2.8mph /  4.5km/h 14mph /  22.5km/h 59.5% 0.00in /  0mm 0 W/m2
20:34 43 °F /  6.1 °C 30 °F /  -1.1 °C 30.05in /  1017.5hPa WNW 1mph /  1.6km/h 14mph /  22.5km/h 60% 0.00in /  0mm 0 W/m2
20:39 42.6 °F /  5.9 °C 29.7 °F /  -1.3 °C 30.06in /  1017.8hPa WNW 1.5mph /  2.4km/h 9mph /  14.5km/h 60% 0.00in /  0mm 0 W/m2
20:44 42.4 °F /  5.8 °C 29.6 °F /  -1.3 °C 30.06in /  1017.8hPa NW 1.5mph /  2.4km/h 10mph /  16.1km/h 60.1% 0.00in /  0mm 0 W/m2
20:49 42.1 °F /  5.6 °C 29.7 °F /  -1.3 °C 30.07in /  1018.2hPa NNW 0.8mph /  1.3km/h 10mph /  16.1km/h 61% 0.00in /  0mm 0 W/m2
20:54 41.9 °F /  5.5 °C 29.4 °F /  -1.4 °C 30.07in /  1018.2hPa WNW 1.7mph /  2.7km/h 10mph /  16.1km/h 61% 0.00in /  0mm 0 W/m2
20:59 41.6 °F /  5.3 °C 29.1 °F /  -1.6 °C 30.08in /  1018.5hPa NW 1mph /  1.6km/h 10mph /  16.1km/h 61% 0.00in /  0mm 0 W/m2
21:04 41.3 °F /  5.2 °C 28.9 °F /  -1.7 °C 30.08in /  1018.5hPa Calm   10mph /  16.1km/h 61% 0.00in /  0mm 0 W/m2
21:09 41.1 °F /  5.1 °C 28.9 °F /  -1.7 °C 30.07in /  1018.2hPa NW 0.1mph /  0.2km/h 1mph /  1.6km/h 61.5% 0.00in /  0mm 0 W/m2
21:14 41 °F /  5 °C 29.2 °F /  -1.6 °C 30.07in /  1018.2hPa Calm   1mph /  1.6km/h 62.6% 0.00in /  0mm 0 W/m2
21:19 40.8 °F /  4.9 °C 29.2 °F /  -1.6 °C 30.08in /  1018.5hPa Calm   1mph /  1.6km/h 63% 0.00in /  0mm 0 W/m2
21:24 40.6 °F /  4.8 °C 29 °F /  -1.7 °C 30.07in /  1018.2hPa NW 0.3mph /  0.5km/h 3mph /  4.8km/h 63% 0.00in /  0mm 0 W/m2
21:29 40.3 °F /  4.6 °C 28.8 °F /  -1.8 °C 30.08in /  1018.5hPa NNW 0.2mph /  0.3km/h 3mph /  4.8km/h 63% 0.00in /  0mm 0 W/m2
21:34 40.1 °F /  4.5 °C 28.5 °F /  -1.9 °C 30.08in /  1018.5hPa NNW 1.2mph /  1.9km/h 10mph /  16.1km/h 63% 0.00in /  0mm 0 W/m2
21:39 39.8 °F /  4.3 °C 28.2 °F /  -2.1 °C 30.08in /  1018.5hPa North 0.9mph /  1.4km/h 10mph /  16.1km/h 63% 0.00in /  0mm 0 W/m2
21:44 39.6 °F /  4.2 °C 28 °F /  -2.2 °C 30.08in /  1018.5hPa NNW 0.7mph /  1.1km/h 10mph /  16.1km/h 63% 0.00in /  0mm 0 W/m2
21:49 39.4 °F /  4.1 °C 27.9 °F /  -2.3 °C 30.08in /  1018.5hPa NW 1.2mph /  1.9km/h 10mph /  16.1km/h 63% 0.00in /  0mm 0 W/m2
21:54 39.3 °F /  4.1 °C 27.8 °F /  -2.3 °C 30.09in /  1018.8hPa NW 0.7mph /  1.1km/h 10mph /  16.1km/h 63% 0.00in /  0mm 0 W/m2
21:59 39.2 °F /  4 °C 27.7 °F /  -2.4 °C 30.09in /  1018.8hPa NW 1mph /  1.6km/h 10mph /  16.1km/h 63% 0.00in /  0mm 0 W/m2
22:04 39.1 °F /  3.9 °C 27.6 °F /  -2.4 °C 30.09in /  1018.8hPa NW 1.6mph /  2.6km/h 10mph /  16.1km/h 62.9% 0.00in /  0mm 0 W/m2
22:09 38.9 °F /  3.8 °C 27.1 °F /  -2.7 °C 30.09in /  1018.8hPa WNW 3.4mph /  5.5km/h 11mph /  17.7km/h 62.2% 0.00in /  0mm 0 W/m2
22:14 38.8 °F /  3.8 °C 26.9 °F /  -2.8 °C 30.09in /  1018.8hPa NW 3.1mph /  5km/h 13mph /  20.9km/h 62% 0.00in /  0mm 0 W/m2
22:19 38.7 °F /  3.7 °C 26.8 °F /  -2.9 °C 30.09in /  1018.8hPa NW 0.1mph /  0.2km/h 13mph /  20.9km/h 62% 0.00in /  0mm 0 W/m2
22:24 38.6 °F /  3.7 °C 26.9 °F /  -2.8 °C 30.09in /  1018.8hPa NW 0.3mph /  0.5km/h 13mph /  20.9km/h 62.4% 0.00in /  0mm 0 W/m2
22:29 38.5 °F /  3.6 °C 27 °F /  -2.8 °C 30.09in /  1018.8hPa NW 0.1mph /  0.2km/h 13mph /  20.9km/h 63% 0.00in /  0mm 0 W/m2
22:34 38.4 °F /  3.6 °C 27 °F /  -2.8 °C 30.10in /  1019.2hPa Calm   13mph /  20.9km/h 63.1% 0.00in /  0mm 0 W/m2
22:39 38.4 °F /  3.6 °C 27.3 °F /  -2.6 °C 30.10in /  1019.2hPa Calm   1mph /  1.6km/h 64% 0.00in /  0mm 0 W/m2
22:44 38.3 °F /  3.5 °C 27.2 °F /  -2.7 °C 30.09in /  1018.8hPa Calm   1mph /  1.6km/h 64% 0.00in /  0mm 0 W/m2
22:49 38.1 °F /  3.4 °C 27.1 °F /  -2.7 °C 30.10in /  1019.2hPa Calm   1mph /  1.6km/h 64% 0.00in /  0mm 0 W/m2
22:54 37.9 °F /  3.3 °C 26.9 °F /  -2.8 °C 30.10in /  1019.2hPa NW 0.1mph /  0.2km/h 2mph /  3.2km/h 64% 0.00in /  0mm 0 W/m2
22:59 37.7 °F /  3.2 °C 26.7 °F /  -2.9 °C 30.10in /  1019.2hPa Calm   2mph /  3.2km/h 64% 0.00in /  0mm 0 W/m2
23:00 37.6 °F /  3.1 °C 26.5 °F /  -3.1 °C 30.10in /  1019.2hPa Calm   2mph /  3.2km/h 64% 0.00in /  0mm 0 W/m2
23:09 37.4 °F /  3 °C 26.3 °F /  -3.2 °C 30.10in /  1019.2hPa NW 0.4mph /  0.6km/h 3mph /  4.8km/h 64% 0.00in /  0mm 0 W/m2
23:14 37.1 °F /  2.8 °C 26.1 °F /  -3.3 °C 30.10in /  1019.2hPa NNW 1mph /  1.6km/h 7mph /  11.3km/h 64% 0.00in /  0mm 0 W/m2
23:19 36.9 °F /  2.7 °C 25.9 °F /  -3.4 °C 30.10in /  1019.2hPa NNW 0.5mph /  0.8km/h 7mph /  11.3km/h 64% 0.00in /  0mm 0 W/m2
23:24 36.8 °F /  2.7 °C 26.1 °F /  -3.3 °C 30.10in /  1019.2hPa Calm   7mph /  11.3km/h 64.9% 0.00in /  0mm 0 W/m2
23:29 36.6 °F /  2.6 °C 25.9 °F /  -3.4 °C 30.10in /  1019.2hPa NNW 0.2mph /  0.3km/h 7mph /  11.3km/h 65% 0.00in /  0mm 0 W/m2
23:34 36.4 °F /  2.4 °C 25.8 °F /  -3.4 °C 30.10in /  1019.2hPa Calm   7mph /  11.3km/h 65% 0.00in /  0mm 0 W/m2
23:39 36.2 °F /  2.3 °C 25.6 °F /  -3.6 °C 30.10in /  1019.2hPa NNW 0.1mph /  0.2km/h 3mph /  4.8km/h 65% 0.00in /  0mm 0 W/m2
23:44 36.1 °F /  2.3 °C 25.5 °F /  -3.6 °C 30.10in /  1019.2hPa NNW 0.2mph /  0.3km/h 3mph /  4.8km/h 65.2% 0.00in /  0mm 0 W/m2
23:49 35.9 °F /  2.2 °C 25.4 °F /  -3.7 °C 30.10in /  1019.2hPa Calm   3mph /  4.8km/h 65.3% 0.00in /  0mm 0 W/m2
23:54 35.8 °F /  2.1 °C 25.4 °F /  -3.7 °C 30.10in /  1019.2hPa Calm   3mph /  4.8km/h 65.6% 0.00in /  0mm 0 W/m2
23:59 35.7 °F /  2.1 °C 25.4 °F /  -3.7 °C 30.11in /  1019.5hPa Calm   3mph /  4.8km/h 66% 0.00in /  0mm 0 W/m2
Hartford County Weather
Compliments of Weather Underground - 4 mb